Time;durP1;ratioP1;P1;durP2;ratioP2;P2;SDS_P1;SDS_P2;PMS_P1;PMS_P2;Temp;Humidity;BMP_temperature;BMP_pressure;BME280_temperature;BME280_humidity;BME280_pressure;Samples;Min_cycle;Max_cycle;Signal;HPM_P1;HPM_P2
2022/02/14 00:00:06;;;;;;;;;;;;;;;;;;1011649;29;1202;-42
2022/02/14 00:00:42;;;;;;;;;;;;;;;;;;1011440;29;945;-42
2022/02/14 00:01:14;;;;;;;;;;;;;;;;;;1011428;29;879;-42
2022/02/14 00:01:44;;;;;;;;;;;;;;;;;;1011641;29;1102;-42
2022/02/14 00:02:15;;;;;;;;;;;;;;;;;;1010418;29;1222;-42
2022/02/14 00:02:45;;;;;;;;;;;;;;;;;;1007915;29;860;-42
2022/02/14 00:03:16;;;;;;;;;;;;;;;;;;1007410;29;1045;-43
2022/02/14 00:03:47;;;;;;;;;;;;;;;;;;1007693;29;860;-41
2022/02/14 00:04:17;;;;;;;;;;;;;;;;;;1007908;29;931;-42
2022/02/14 00:04:48;;;;;;;;;;;;;;;;;;1007338;29;844;-42
2022/02/14 00:05:18;;;;;;;;;;;;;;;;;;1007679;29;985;-42
2022/02/14 00:05:49;;;;;;;;;;;;;;;;;;1007548;29;1088;-42
2022/02/14 00:06:19;;;;;;;;;;;;;;;;;;1007701;29;895;-42
2022/02/14 00:06:49;;;;;;;;;;;;;;;;;;1007760;29;1029;-42
2022/02/14 00:07:20;;;;;;;;;;;;;;;;;;1007467;29;928;-42
2022/02/14 00:07:50;;;;;;;;;;;;;;;;;;1007664;29;1105;-41
2022/02/14 00:08:20;;;;;;;;;;;;;;;;;;1007585;29;1661;-42
2022/02/14 00:08:51;;;;;;;;;;;;;;;;;;1007601;29;940;-42
2022/02/14 00:09:21;;;;;;;;;;;;;;;;;;1007761;29;1242;-42
2022/02/14 00:09:51;;;;;;;;;;;;;;;;;;1007444;29;884;-42
2022/02/14 00:10:22;;;;;;;;;;;;;;;;;;1007841;29;1137;-41
2022/02/14 00:10:52;;;;;;;;;;;;;;;;;;1007386;29;971;-43
2022/02/14 00:11:24;;;;;;;;;;;;;;;;;;1007605;29;974;-42
2022/02/14 00:11:54;;;;;;;;;;;;;;;;;;1007729;29;978;-42
2022/02/14 00:12:25;;;;;;;;;;;;;;;;;;1007463;29;955;-42
2022/02/14 00:12:56;;;;;;;;;;;;;;;;;;1007726;29;1624;-41
2022/02/14 00:13:26;;;;;;;;;;;;;;;;;;1007655;29;1138;-42
2022/02/14 00:13:56;;;;;;;;;;;;;;;;;;1007364;29;1978;-42
2022/02/14 00:14:30;;;;;;;;;;;;;;;;;;1007679;29;1250;-42
2022/02/14 00:15:01;;;;;;;;;;;;;;;;;;1007464;29;1305;-42
2022/02/14 00:15:32;;;;;;;;;;;;;;;;;;1007710;29;982;-42
2022/02/14 00:16:03;;;;;;;;;;;;;;;;;;1007673;29;960;-42
2022/02/14 00:16:33;;;;;;;;;;;;;;;;;;1007489;29;1344;-42
2022/02/14 00:17:04;;;;;;;;;;;;;;;;;;1007854;29;991;-42
2022/02/14 00:17:34;;;;;;;;;;;;;;;;;;1007529;29;843;-42
2022/02/14 00:18:04;;;;;;;;;;;;;;;;;;1007633;29;957;-42
2022/02/14 00:18:35;;;;;;;;;;;;;;;;;;1007501;29;978;-42
2022/02/14 00:19:05;;;;;;;;;;;;;;;;;;1007629;29;994;-42
2022/02/14 00:19:36;;;;;;;;;;;;;;;;;;1007710;29;1288;-42
2022/02/14 00:20:06;;;;;;;;;;;;;;;;;;1007569;29;939;-42
2022/02/14 00:20:37;;;;;;;;;;;;;;;;;;1007607;29;987;-42
2022/02/14 00:21:08;;;;;;;;;;;;;;;;;;1007518;29;892;-42
2022/02/14 00:21:38;;;;;;;;;;;;;;;;;;1007513;29;938;-45
2022/02/14 00:22:09;;;;;;;;;;;;;;;;;;1011377;29;1104;-42
2022/02/14 00:22:40;;;;;;;;;;;;;;;;;;1011553;29;912;-42
2022/02/14 00:23:10;;;;;;;;;;;;;;;;;;1011315;29;958;-42
2022/02/14 00:23:41;;;;;;;;;;;;;;;;;;1011561;29;1032;-42
2022/02/14 00:24:11;;;;;;;;;;;;;;;;;;1011272;29;995;-42
2022/02/14 00:24:41;;;;;;;;;;;;;;;;;;1011573;29;937;-42
2022/02/14 00:25:13;;;;;;;;;;;;;;;;;;1011321;29;876;-42
2022/02/14 00:25:44;;;;;;;;;;;;;;;;;;1011452;29;1608;-42
2022/02/14 00:26:14;;;;;;;;;;;;;;;;;;1011265;29;968;-40
2022/02/14 00:26:45;;;;;;;;;;;;;;;;;;1011538;29;939;-42
2022/02/14 00:27:15;;;;;;;;;;;;;;;;;;1011412;29;953;-42
2022/02/14 00:27:46;;;;;;;;;;;;;;;;;;1011555;29;887;-42
2022/02/14 00:28:17;;;;;;;;;;;;;;;;;;1011273;29;1060;-42
2022/02/14 00:28:47;;;;;;;;;;;;;;;;;;1011379;29;928;-42
2022/02/14 00:29:17;;;;;;;;;;;;;;;;;;1011503;29;935;-42
2022/02/14 00:29:49;;;;;;;;;;;;;;;;;;1011373;29;862;-42
2022/02/14 00:30:19;;;;;;;;;;;;;;;;;;1011291;29;1112;-42
2022/02/14 00:30:49;;;;;;;;;;;;;;;;;;1011403;29;941;-42
2022/02/14 00:31:20;;;;;;;;;;;;;;;;;;1011326;29;978;-41
2022/02/14 00:31:50;;;;;;;;;;;;;;;;;;1011565;29;888;-42
2022/02/14 00:32:21;;;;;;;;;;;;;;;;;;1011322;29;1035;-42
2022/02/14 00:32:51;;;;;;;;;;;;;;;;;;1011321;29;1322;-42
2022/02/14 00:33:21;;;;;;;;;;;;;;;;;;1011528;29;931;-42
2022/02/14 00:33:52;;;;;;;;;;;;;;;;;;1011185;29;1972;-42
2022/02/14 00:34:22;;;;;;;;;;;;;;;;;;1011056;29;887;-42
2022/02/14 00:34:53;;;;;;;;;;;;;;;;;;1010731;29;963;-42
2022/02/14 00:35:23;;;;;;;;;;;;;;;;;;1011346;29;789;-42
2022/02/14 00:35:53;;;;;;;;;;;;;;;;;;1011540;29;1083;-42
2022/02/14 00:36:24;;;;;;;;;;;;;;;;;;1011180;29;949;-42
2022/02/14 00:36:55;;;;;;;;;;;;;;;;;;1011459;29;911;-42
2022/02/14 00:37:25;;;;;;;;;;;;;;;;;;1011449;29;950;-42
2022/02/14 00:37:55;;;;;;;;;;;;;;;;;;1011301;29;864;-42
2022/02/14 00:38:26;;;;;;;;;;;;;;;;;;1011563;29;900;-42
2022/02/14 00:38:56;;;;;;;;;;;;;;;;;;1011178;29;989;-42
2022/02/14 00:39:27;;;;;;;;;;;;;;;;;;1011467;29;836;-42
2022/02/14 00:39:58;;;;;;;;;;;;;;;;;;1011601;29;1552;-42
2022/02/14 00:40:28;;;;;;;;;;;;;;;;;;1011167;29;808;-42
2022/02/14 00:41:00;;;;;;;;;;;;;;;;;;1011464;29;998;-42
2022/02/14 00:41:30;;;;;;;;;;;;;;;;;;1011113;29;947;-42
2022/02/14 00:42:01;;;;;;;;;;;;;;;;;;1011567;29;1044;-42
2022/02/14 00:42:31;;;;;;;;;;;;;;;;;;1011367;29;954;-42
2022/02/14 00:43:03;;;;;;;;;;;;;;;;;;1011209;29;888;-42
2022/02/14 00:43:33;;;;;;;;;;;;;;;;;;1011425;29;917;-42
2022/02/14 00:44:04;;;;;;;;;;;;;;;;;;1011274;29;903;-42
2022/02/14 00:44:34;;;;;;;;;;;;;;;;;;1011294;29;1048;-42
2022/02/14 00:45:05;;;;;;;;;;;;;;;;;;1011498;29;949;-42
2022/02/14 00:45:35;;;;;;;;;;;;;;;;;;1011141;29;943;-42
2022/02/14 00:46:06;;;;;;;;;;;;;;;;;;1011537;29;900;-42
2022/02/14 00:46:36;;;;;;;;;;;;;;;;;;1011214;29;921;-42
2022/02/14 00:47:06;;;;;;;;;;;;;;;;;;1011446;29;833;-42
2022/02/14 00:47:37;;;;;;;;;;;;;;;;;;1007134;29;1048;-42
2022/02/14 00:48:07;;;;;;;;;;;;;;;;;;1007059;29;840;-42
2022/02/14 00:48:38;;;;;;;;;;;;;;;;;;1007223;29;1210;-42
2022/02/14 00:49:08;;;;;;;;;;;;;;;;;;1007021;29;1357;-42
2022/02/14 00:49:39;;;;;;;;;;;;;;;;;;1011381;29;844;-42
2022/02/14 00:50:11;;;;;;;;;;;;;;;;;;1011378;29;1012;-42
2022/02/14 00:50:42;;;;;;;;;;;;;;;;;;1011179;29;876;-42
2022/02/14 00:51:12;;;;;;;;;;;;;;;;;;1011445;29;906;-42
2022/02/14 00:51:43;;;;;;;;;;;;;;;;;;1011167;29;890;-42
2022/02/14 00:52:13;;;;;;;;;;;;;;;;;;1011377;29;864;-42
2022/02/14 00:52:43;;;;;;;;;;;;;;;;;;1011439;29;918;-42
2022/02/14 00:53:14;;;;;;;;;;;;;;;;;;1011262;29;951;-42
2022/02/14 00:53:44;;;;;;;;;;;;;;;;;;1011204;29;1986;-42
2022/02/14 00:54:15;;;;;;;;;;;;;;;;;;1011194;29;979;-42
2022/02/14 00:54:45;;;;;;;;;;;;;;;;;;1011153;29;1102;-42
2022/02/14 00:55:16;;;;;;;;;;;;;;;;;;1011359;29;932;-42
2022/02/14 00:55:47;;;;;;;;;;;;;;;;;;1011110;29;957;-43
2022/02/14 00:56:17;;;;;;;;;;;;;;;;;;1011513;29;947;-43
2022/02/14 00:56:48;;;;;;;;;;;;;;;;;;1011102;29;894;-43
2022/02/14 00:57:18;;;;;;;;;;;;;;;;;;1011490;29;868;-43
2022/02/14 00:57:49;;;;;;;;;;;;;;;;;;1011162;29;941;-43
2022/02/14 00:58:20;;;;;;;;;;;;;;;;;;1011450;29;890;-43
2022/02/14 00:58:51;;;;;;;;;;;;;;;;;;1011269;29;963;-43
2022/02/14 00:59:22;;;;;;;;;;;;;;;;;;1011302;29;958;-43
2022/02/14 00:59:52;;;;;;;;;;;;;;;;;;1011282;29;986;-43
2022/02/14 01:00:23;;;;;;;;;;;;;;;;;;1011428;29;884;-43
2022/02/14 01:00:54;;;;;;;;;;;;;;;;;;1011130;29;923;-42
2022/02/14 01:01:24;;;;;;;;;;;;;;;;;;1011420;29;954;-42
2022/02/14 01:01:55;;;;;;;;;;;;;;;;;;1011077;29;866;-42
2022/02/14 01:02:25;;;;;;;;;;;;;;;;;;1009200;29;1168;-43
2022/02/14 01:02:56;;;;;;;;;;;;;;;;;;1007310;29;1111;-43
2022/02/14 01:03:27;;;;;;;;;;;;;;;;;;1007427;29;954;-43
2022/02/14 01:03:57;;;;;;;;;;;;;;;;;;1007563;29;1049;-43
2022/02/14 01:04:27;;;;;;;;;;;;;;;;;;1007103;29;852;-43
2022/02/14 01:04:58;;;;;;;;;;;;;;;;;;1007655;29;824;-42
2022/02/14 01:05:28;;;;;;;;;;;;;;;;;;1007224;29;1060;-42
2022/02/14 01:05:59;;;;;;;;;;;;;;;;;;1007508;29;884;-43
2022/02/14 01:06:30;;;;;;;;;;;;;;;;;;1007471;29;920;-43
2022/02/14 01:07:00;;;;;;;;;;;;;;;;;;1007428;29;863;-42
2022/02/14 01:07:30;;;;;;;;;;;;;;;;;;1007527;29;1096;-43
2022/02/14 01:08:01;;;;;;;;;;;;;;;;;;1007302;29;929;-43
2022/02/14 01:08:31;;;;;;;;;;;;;;;;;;1007379;29;942;-43
2022/02/14 01:09:02;;;;;;;;;;;;;;;;;;1007607;29;998;-43
2022/02/14 01:09:33;;;;;;;;;;;;;;;;;;1007273;29;825;-43
2022/02/14 01:10:04;;;;;;;;;;;;;;;;;;1007620;29;1024;-43
2022/02/14 01:10:35;;;;;;;;;;;;;;;;;;1007192;29;836;-43
2022/02/14 01:11:05;;;;;;;;;;;;;;;;;;1007486;29;978;-43
2022/02/14 01:11:35;;;;;;;;;;;;;;;;;;1007591;29;1166;-43
2022/02/14 01:12:06;;;;;;;;;;;;;;;;;;1007224;29;1600;-42
2022/02/14 01:12:37;;;;;;;;;;;;;;;;;;1007427;29;893;-42
2022/02/14 01:13:07;;;;;;;;;;;;;;;;;;1007283;29;930;-42
2022/02/14 01:13:38;;;;;;;;;;;;;;;;;;1003097;29;1305;-42
2022/02/14 01:14:09;;;;;;;;;;;;;;;;;;1003316;29;1919;-42
2022/02/14 01:14:39;;;;;;;;;;;;;;;;;;1002941;29;820;-42
2022/02/14 01:15:10;;;;;;;;;;;;;;;;;;1003292;29;1006;-43
2022/02/14 01:15:40;;;;;;;;;;;;;;;;;;1007425;29;1037;-42
2022/02/14 01:16:11;;;;;;;;;;;;;;;;;;1007349;29;888;-42
2022/02/14 01:16:41;;;;;;;;;;;;;;;;;;1007481;29;894;-42
2022/02/14 01:17:11;;;;;;;;;;;;;;;;;;1007214;29;892;-42
2022/02/14 01:17:42;;;;;;;;;;;;;;;;;;1007541;29;973;-43
2022/02/14 01:18:13;;;;;;;;;;;;;;;;;;1007324;29;892;-42
2022/02/14 01:18:43;;;;;;;;;;;;;;;;;;1007229;29;790;-42
2022/02/14 01:19:13;;;;;;;;;;;;;;;;;;1003310;29;966;-42
2022/02/14 01:19:44;;;;;;;;;;;;;;;;;;1003109;29;781;-42
2022/02/14 01:20:14;;;;;;;;;;;;;;;;;;1003316;29;951;-42
2022/02/14 01:20:44;;;;;;;;;;;;;;;;;;1003230;29;1274;-42
2022/02/14 01:21:15;;;;;;;;;;;;;;;;;;1007338;29;1315;-43
2022/02/14 01:21:45;;;;;;;;;;;;;;;;;;1008280;29;1054;-42
2022/02/14 01:22:16;;;;;;;;;;;;;;;;;;1011120;29;793;-42
2022/02/14 01:22:46;;;;;;;;;;;;;;;;;;1011323;29;984;-42
2022/02/14 01:23:16;;;;;;;;;;;;;;;;;;1011146;29;977;-43
2022/02/14 01:23:47;;;;;;;;;;;;;;;;;;1011134;29;867;-42
2022/02/14 01:24:17;;;;;;;;;;;;;;;;;;1011434;29;1100;-43
2022/02/14 01:24:47;;;;;;;;;;;;;;;;;;1011082;29;844;-43
2022/02/14 01:25:18;;;;;;;;;;;;;;;;;;1011211;29;1361;-43
2022/02/14 01:25:48;;;;;;;;;;;;;;;;;;1010975;29;984;-43
2022/02/14 01:26:18;;;;;;;;;;;;;;;;;;1011414;29;927;-43
2022/02/14 01:26:49;;;;;;;;;;;;;;;;;;1011136;29;884;-42
2022/02/14 01:27:19;;;;;;;;;;;;;;;;;;1011153;29;880;-42
2022/02/14 01:27:49;;;;;;;;;;;;;;;;;;1011219;29;913;-43
2022/02/14 01:28:20;;;;;;;;;;;;;;;;;;1011163;29;947;-42
2022/02/14 01:28:50;;;;;;;;;;;;;;;;;;1011318;29;1612;-43
2022/02/14 01:29:21;;;;;;;;;;;;;;;;;;1011203;29;947;-43
2022/02/14 01:29:52;;;;;;;;;;;;;;;;;;1011117;29;902;-42
2022/02/14 01:30:22;;;;;;;;;;;;;;;;;;1011299;29;925;-43
2022/02/14 01:30:52;;;;;;;;;;;;;;;;;;1011011;29;859;-42
2022/02/14 01:31:23;;;;;;;;;;;;;;;;;;1011358;29;920;-42
2022/02/14 01:31:54;;;;;;;;;;;;;;;;;;1011080;29;876;-43
2022/02/14 01:32:24;;;;;;;;;;;;;;;;;;1011238;29;883;-42
2022/02/14 01:32:54;;;;;;;;;;;;;;;;;;1011181;29;888;-42
2022/02/14 01:33:25;;;;;;;;;;;;;;;;;;1006844;29;1256;-43
2022/02/14 01:33:55;;;;;;;;;;;;;;;;;;1006985;29;1919;-42
2022/02/14 01:34:25;;;;;;;;;;;;;;;;;;1006993;29;905;-42
2022/02/14 01:34:56;;;;;;;;;;;;;;;;;;1006886;29;907;-42
2022/02/14 01:35:27;;;;;;;;;;;;;;;;;;1011346;29;1647;-42
2022/02/14 01:35:57;;;;;;;;;;;;;;;;;;1011068;29;914;-42
2022/02/14 01:36:28;;;;;;;;;;;;;;;;;;1011384;29;946;-42
2022/02/14 01:36:58;;;;;;;;;;;;;;;;;;1011077;29;996;-42
2022/02/14 01:37:28;;;;;;;;;;;;;;;;;;1011256;29;907;-42
2022/02/14 01:37:59;;;;;;;;;;;;;;;;;;1011234;29;1121;-42
2022/02/14 01:38:29;;;;;;;;;;;;;;;;;;1010967;29;990;-42
2022/02/14 01:39:00;;;;;;;;;;;;;;;;;;1011412;29;1037;-42
2022/02/14 01:39:30;;;;;;;;;;;;;;;;;;1011138;29;1279;-45
2022/02/14 01:40:00;;;;;;;;;;;;;;;;;;1011138;29;975;-42
2022/02/14 01:40:31;;;;;;;;;;;;;;;;;;1011285;29;957;-42
2022/02/14 01:41:01;;;;;;;;;;;;;;;;;;1010980;29;994;-42
2022/02/14 01:41:31;;;;;;;;;;;;;;;;;;1011326;29;999;-42
2022/02/14 01:42:02;;;;;;;;;;;;;;;;;;1011101;29;1716;-41
2022/02/14 01:42:32;;;;;;;;;;;;;;;;;;1011157;29;1006;-42
2022/02/14 01:43:03;;;;;;;;;;;;;;;;;;1011333;29;919;-42
2022/02/14 01:43:33;;;;;;;;;;;;;;;;;;1007252;29;999;-42
2022/02/14 01:44:04;;;;;;;;;;;;;;;;;;1007450;29;942;-42
2022/02/14 01:44:34;;;;;;;;;;;;;;;;;;1007225;29;937;-42
2022/02/14 01:45:06;;;;;;;;;;;;;;;;;;1007337;29;956;-42
2022/02/14 01:45:36;;;;;;;;;;;;;;;;;;1007444;29;995;-42
2022/02/14 01:46:06;;;;;;;;;;;;;;;;;;1006956;29;817;-42
2022/02/14 01:46:37;;;;;;;;;;;;;;;;;;1007608;29;1009;-42
2022/02/14 01:47:14;;;;;;;;;;;;;;;;;;1007244;29;919;-42
2022/02/14 01:47:45;;;;;;;;;;;;;;;;;;1007161;29;963;-41
2022/02/14 01:48:15;;;;;;;;;;;;;;;;;;1007442;29;964;-42
2022/02/14 01:48:45;;;;;;;;;;;;;;;;;;1007263;29;967;-42
2022/02/14 01:49:16;;;;;;;;;;;;;;;;;;1007447;29;1187;-42
2022/02/14 01:49:47;;;;;;;;;;;;;;;;;;1007276;29;856;-42
2022/02/14 01:50:17;;;;;;;;;;;;;;;;;;1007294;29;928;-42
2022/02/14 01:50:48;;;;;;;;;;;;;;;;;;1007376;29;906;-42
2022/02/14 01:51:18;;;;;;;;;;;;;;;;;;1007283;29;868;-42
2022/02/14 01:51:48;;;;;;;;;;;;;;;;;;1007263;29;935;-42
2022/02/14 01:52:21;;;;;;;;;;;;;;;;;;1007363;29;983;-42
2022/02/14 01:52:54;;;;;;;;;;;;;;;;;;1007180;29;836;-42
2022/02/14 01:53:24;;;;;;;;;;;;;;;;;;1003365;29;1139;-42
2022/02/14 01:53:54;;;;;;;;;;;;;;;;;;1002939;29;1903;-42
2022/02/14 01:54:25;;;;;;;;;;;;;;;;;;1003194;29;974;-42
2022/02/14 01:54:56;;;;;;;;;;;;;;;;;;1003024;29;1231;-42
2022/02/14 01:55:26;;;;;;;;;;;;;;;;;;1007309;29;796;-42
2022/02/14 01:55:58;;;;;;;;;;;;;;;;;;1007415;29;955;-42
2022/02/14 01:56:28;;;;;;;;;;;;;;;;;;1007171;29;1003;-42
2022/02/14 01:56:58;;;;;;;;;;;;;;;;;;1007418;29;971;-42
2022/02/14 01:57:29;;;;;;;;;;;;;;;;;;1003216;29;1180;-42
2022/02/14 01:58:01;;;;;;;;;;;;;;;;;;1003075;29;978;-42
2022/02/14 01:58:32;;;;;;;;;;;;;;;;;;1003286;29;1329;-42
2022/02/14 01:59:02;;;;;;;;;;;;;;;;;;1003215;29;955;-42
2022/02/14 01:59:33;;;;;;;;;;;;;;;;;;1007323;29;967;-42
2022/02/14 02:00:08;;;;;;;;;;;;;;;;;;1007419;29;1062;-42
2022/02/14 02:00:44;;;;;;;;;;;;;;;;;;1007163;29;752;-42
2022/02/14 02:01:15;;;;;;;;;;;;;;;;;;1007454;29;963;-42
2022/02/14 02:01:45;;;;;;;;;;;;;;;;;;1007342;29;933;-42
2022/02/14 02:02:15;;;;;;;;;;;;;;;;;;1007126;29;1128;-42
2022/02/14 02:02:46;;;;;;;;;;;;;;;;;;1007523;29;997;-42
2022/02/14 02:03:17;;;;;;;;;;;;;;;;;;1007155;29;914;-42
2022/02/14 02:03:48;;;;;;;;;;;;;;;;;;1007364;29;986;-42
2022/02/14 02:04:19;;;;;;;;;;;;;;;;;;1007436;29;951;-42
2022/02/14 02:04:49;;;;;;;;;;;;;;;;;;1007116;29;812;-42
2022/02/14 02:05:19;;;;;;;;;;;;;;;;;;1007517;29;1374;-42
2022/02/14 02:05:50;;;;;;;;;;;;;;;;;;1007130;29;894;-42
2022/02/14 02:06:20;;;;;;;;;;;;;;;;;;1007369;29;883;-42
2022/02/14 02:06:51;;;;;;;;;;;;;;;;;;1007368;29;876;-42
2022/02/14 02:07:21;;;;;;;;;;;;;;;;;;1007092;29;931;-42
2022/02/14 02:07:52;;;;;;;;;;;;;;;;;;1007549;29;878;-42
2022/02/14 02:08:22;;;;;;;;;;;;;;;;;;1007102;29;964;-42
2022/02/14 02:08:53;;;;;;;;;;;;;;;;;;1007418;29;940;-42
2022/02/14 02:09:24;;;;;;;;;;;;;;;;;;1007244;29;1021;-42
2022/02/14 02:09:55;;;;;;;;;;;;;;;;;;1007302;29;955;-42
2022/02/14 02:10:26;;;;;;;;;;;;;;;;;;1007279;29;896;-42
2022/02/14 02:12:22;;;;;;;;;;;;;;;;;;1007231;29;1049;-42
2022/02/14 02:12:36;;;;;;;;;;;;;;;;;;1007281;29;805;-42
2022/02/14 02:13:06;;;;;;;;;;;;;;;;;;1007250;29;1016;-42
2022/02/14 02:13:46;;;;;;;;;;;;;;;;;;1007270;29;964;-43
2022/02/14 02:14:20;;;;;;;;;;;;;;;;;;1007152;29;865;-41
2022/02/14 02:14:52;;;;;;;;;;;;;;;;;;1007399;29;1818;-43
2022/02/14 02:15:23;;;;;;;;;;;;;;;;;;1007108;29;884;-43
2022/02/14 02:15:53;;;;;;;;;;;;;;;;;;1007310;29;1375;-42
2022/02/14 02:16:24;;;;;;;;;;;;;;;;;;1007306;29;949;-42
2022/02/14 02:16:54;;;;;;;;;;;;;;;;;;1007227;29;948;-43
2022/02/14 02:17:27;;;;;;;;;;;;;;;;;;1007335;29;836;-43
2022/02/14 02:17:58;;;;;;;;;;;;;;;;;;1007321;29;1635;-43
2022/02/14 02:18:28;;;;;;;;;;;;;;;;;;1007083;29;832;-42
2022/02/14 02:18:58;;;;;;;;;;;;;;;;;;1007447;29;989;-42
2022/02/14 02:19:29;;;;;;;;;;;;;;;;;;1006700;29;832;-43
2022/02/14 02:20:00;;;;;;;;;;;;;;;;;;1006980;29;966;-43
2022/02/14 02:20:30;;;;;;;;;;;;;;;;;;1007007;29;924;-43
2022/02/14 02:21:01;;;;;;;;;;;;;;;;;;1002959;29;939;-43
2022/02/14 02:21:31;;;;;;;;;;;;;;;;;;1003352;29;954;-42
2022/02/14 02:22:01;;;;;;;;;;;;;;;;;;1002801;29;900;-42
2022/02/14 02:22:32;;;;;;;;;;;;;;;;;;1006324;29;1001;-42
2022/02/14 02:23:03;;;;;;;;;;;;;;;;;;1011120;29;949;-42
2022/02/14 02:23:34;;;;;;;;;;;;;;;;;;1010959;29;940;-42
2022/02/14 02:24:08;;;;;;;;;;;;;;;;;;1011132;29;897;-42
2022/02/14 02:24:49;;;;;;;;;;;;;;;;;;1010959;29;901;-42
2022/02/14 02:25:20;;;;;;;;;;;;;;;;;;1011003;29;832;-42
2022/02/14 02:25:50;;;;;;;;;;;;;;;;;;1011196;29;973;-43
2022/02/14 02:26:20;;;;;;;;;;;;;;;;;;1010827;29;953;-43
2022/02/14 02:27:02;;;;;;;;;;;;;;;;;;1011286;29;936;-43
2022/02/14 02:27:32;;;;;;;;;;;;;;;;;;1011187;29;894;-43
2022/02/14 02:28:03;;;;;;;;;;;;;;;;;;1010919;29;969;-42
2022/02/14 02:28:33;;;;;;;;;;;;;;;;;;1011170;29;908;-42
2022/02/14 02:29:04;;;;;;;;;;;;;;;;;;1011209;29;811;-43
2022/02/14 02:29:37;;;;;;;;;;;;;;;;;;1011098;29;819;-42
2022/02/14 02:30:09;;;;;;;;;;;;;;;;;;1011018;29;1091;-43
2022/02/14 02:30:39;;;;;;;;;;;;;;;;;;1010922;29;982;-42
2022/02/14 02:31:10;;;;;;;;;;;;;;;;;;1011216;29;979;-43
2022/02/14 02:31:42;;;;;;;;;;;;;;;;;;1011094;29;1087;-42
2022/02/14 02:32:12;;;;;;;;;;;;;;;;;;1011045;29;875;-43
2022/02/14 02:32:42;;;;;;;;;;;;;;;;;;1011023;29;1361;-43
2022/02/14 02:33:13;;;;;;;;;;;;;;;;;;1011162;29;937;-43
2022/02/14 02:33:43;;;;;;;;;;;;;;;;;;1010988;29;1986;-43
2022/02/14 02:34:13;;;;;;;;;;;;;;;;;;1011132;29;935;-43
2022/02/14 02:34:44;;;;;;;;;;;;;;;;;;1010907;29;955;-43
2022/02/14 02:35:14;;;;;;;;;;;;;;;;;;1011091;29;1050;-43
2022/02/14 02:35:45;;;;;;;;;;;;;;;;;;1011030;29;864;-43
2022/02/14 02:36:15;;;;;;;;;;;;;;;;;;1011072;29;1776;-43
2022/02/14 02:36:53;;;;;;;;;;;;;;;;;;1011014;29;945;-43
2022/02/14 02:37:24;;;;;;;;;;;;;;;;;;1011013;29;1246;-43
2022/02/14 02:37:54;;;;;;;;;;;;;;;;;;1011238;29;860;-43
2022/02/14 02:38:25;;;;;;;;;;;;;;;;;;1010993;29;933;-43
2022/02/14 02:38:55;;;;;;;;;;;;;;;;;;1011037;29;978;-42
2022/02/14 02:39:26;;;;;;;;;;;;;;;;;;1011011;29;893;-42
2022/02/14 02:39:57;;;;;;;;;;;;;;;;;;1011090;29;958;-42
2022/02/14 02:40:27;;;;;;;;;;;;;;;;;;1010956;29;809;-42
2022/02/14 02:40:58;;;;;;;;;;;;;;;;;;1011245;29;937;-42
2022/02/14 02:41:28;;;;;;;;;;;;;;;;;;1010922;29;927;-42
2022/02/14 02:41:58;;;;;;;;;;;;;;;;;;1011233;29;921;-42
2022/02/14 02:42:29;;;;;;;;;;;;;;;;;;1010839;29;962;-42
2022/02/14 02:43:00;;;;;;;;;;;;;;;;;;1011070;29;899;-42
2022/02/14 02:43:31;;;;;;;;;;;;;;;;;;1011145;29;1094;-42
2022/02/14 02:44:01;;;;;;;;;;;;;;;;;;1010968;29;903;-42
2022/02/14 02:44:35;;;;;;;;;;;;;;;;;;1011008;29;989;-42
2022/02/14 02:45:06;;;;;;;;;;;;;;;;;;1010939;29;1035;-42
2022/02/14 02:45:36;;;;;;;;;;;;;;;;;;1011122;29;998;-42
2022/02/14 02:46:07;;;;;;;;;;;;;;;;;;1011075;29;977;-43
2022/02/14 02:46:38;;;;;;;;;;;;;;;;;;1011095;29;892;-42
2022/02/14 02:47:10;;;;;;;;;;;;;;;;;;1011080;29;1015;-43
2022/02/14 02:47:41;;;;;;;;;;;;;;;;;;1011011;29;901;-43
2022/02/14 02:48:12;;;;;;;;;;;;;;;;;;1011206;29;848;-43
2022/02/14 02:48:42;;;;;;;;;;;;;;;;;;1010938;29;1261;-42
2022/02/14 02:49:14;;;;;;;;;;;;;;;;;;1011026;29;841;-43
2022/02/14 02:49:45;;;;;;;;;;;;;;;;;;1010996;29;984;-42
2022/02/14 02:50:17;;;;;;;;;;;;;;;;;;1011107;29;1016;-42
2022/02/14 02:51:02;;;;;;;;;;;;;;;;;;1010995;29;812;-43
2022/02/14 02:51:35;;;;;;;;;;;;;;;;;;1011095;29;916;-43
2022/02/14 02:52:07;;;;;;;;;;;;;;;;;;1011167;29;1188;-42
2022/02/14 02:52:38;;;;;;;;;;;;;;;;;;1010914;29;847;-43
2022/02/14 02:53:08;;;;;;;;;;;;;;;;;;1011215;29;956;-42
2022/02/14 02:53:38;;;;;;;;;;;;;;;;;;1010974;29;993;-42
2022/02/14 02:54:09;;;;;;;;;;;;;;;;;;1010928;29;1972;-43
2022/02/14 02:54:39;;;;;;;;;;;;;;;;;;1010970;29;1071;-43
2022/02/14 02:55:10;;;;;;;;;;;;;;;;;;1010849;29;1093;-42
2022/02/14 02:55:41;;;;;;;;;;;;;;;;;;1011037;29;1106;-42
2022/02/14 02:56:11;;;;;;;;;;;;;;;;;;1011119;29;1039;-42
2022/02/14 02:56:42;;;;;;;;;;;;;;;;;;1010878;29;796;-42
2022/02/14 02:57:13;;;;;;;;;;;;;;;;;;1011236;29;938;-43
2022/02/14 02:57:44;;;;;;;;;;;;;;;;;;1010698;29;848;-42
2022/02/14 02:58:14;;;;;;;;;;;;;;;;;;1011870;29;1083;-43
2022/02/14 02:58:44;;;;;;;;;;;;;;;;;;1011614;29;970;-42
2022/02/14 02:59:16;;;;;;;;;;;;;;;;;;1011826;29;817;-42
2022/02/14 02:59:46;;;;;;;;;;;;;;;;;;1011735;29;993;-42
2022/02/14 03:00:17;;;;;;;;;;;;;;;;;;1011782;29;839;-42
2022/02/14 03:00:47;;;;;;;;;;;;;;;;;;1011745;29;902;-43
2022/02/14 03:01:18;;;;;;;;;;;;;;;;;;1011873;29;985;-42
2022/02/14 03:01:48;;;;;;;;;;;;;;;;;;1011511;29;836;-43
2022/02/14 03:02:18;;;;;;;;;;;;;;;;;;1010469;29;1171;-42
2022/02/14 03:02:49;;;;;;;;;;;;;;;;;;1007818;29;954;-42
2022/02/14 03:03:19;;;;;;;;;;;;;;;;;;1008006;29;1375;-43
2022/02/14 03:03:49;;;;;;;;;;;;;;;;;;1007723;29;927;-43
2022/02/14 03:04:20;;;;;;;;;;;;;;;;;;1007929;29;876;-43
2022/02/14 03:04:50;;;;;;;;;;;;;;;;;;1007892;29;1047;-42
2022/02/14 03:05:25;;;;;;;;;;;;;;;;;;1007972;29;805;-43
2022/02/14 03:05:56;;;;;;;;;;;;;;;;;;1007802;29;969;-42
2022/02/14 03:06:26;;;;;;;;;;;;;;;;;;1007924;29;968;-42
2022/02/14 03:06:57;;;;;;;;;;;;;;;;;;1007890;29;954;-42
2022/02/14 03:07:27;;;;;;;;;;;;;;;;;;1007985;29;949;-43
2022/02/14 03:07:57;;;;;;;;;;;;;;;;;;1007882;29;1060;-42
2022/02/14 03:08:28;;;;;;;;;;;;;;;;;;1007816;29;989;-43
2022/02/14 03:08:58;;;;;;;;;;;;;;;;;;1007979;29;1052;-43
2022/02/14 03:09:29;;;;;;;;;;;;;;;;;;1007862;29;879;-43
2022/02/14 03:10:00;;;;;;;;;;;;;;;;;;1007921;29;905;-42
2022/02/14 03:10:30;;;;;;;;;;;;;;;;;;1007813;29;915;-42
2022/02/14 03:11:01;;;;;;;;;;;;;;;;;;1007916;29;1739;-43
2022/02/14 03:11:32;;;;;;;;;;;;;;;;;;1007846;29;910;-43
2022/02/14 03:12:03;;;;;;;;;;;;;;;;;;1007856;29;943;-42
2022/02/14 03:12:33;;;;;;;;;;;;;;;;;;1007952;29;951;-42
2022/02/14 03:13:03;;;;;;;;;;;;;;;;;;1007703;29;959;-43
2022/02/14 03:13:34;;;;;;;;;;;;;;;;;;1007988;29;1685;-43
2022/02/14 03:14:04;;;;;;;;;;;;;;;;;;1007687;29;1911;-43
2022/02/14 03:14:38;;;;;;;;;;;;;;;;;;1007717;29;942;-43
2022/02/14 03:15:09;;;;;;;;;;;;;;;;;;1008072;29;943;-43
2022/02/14 03:15:40;;;;;;;;;;;;;;;;;;1007709;29;1699;-43
2022/02/14 03:16:11;;;;;;;;;;;;;;;;;;1007932;29;1057;-43
2022/02/14 03:16:41;;;;;;;;;;;;;;;;;;1007831;29;821;-42
2022/02/14 03:17:12;;;;;;;;;;;;;;;;;;1007956;29;946;-41
2022/02/14 03:17:42;;;;;;;;;;;;;;;;;;1007827;29;998;-42
2022/02/14 03:18:12;;;;;;;;;;;;;;;;;;1007910;29;899;-42
2022/02/14 03:18:42;;;;;;;;;;;;;;;;;;1007907;29;1016;-42
2022/02/14 03:19:13;;;;;;;;;;;;;;;;;;1007759;29;995;-42
2022/02/14 03:19:43;;;;;;;;;;;;;;;;;;1007816;29;1012;-42
2022/02/14 03:20:14;;;;;;;;;;;;;;;;;;1007892;29;916;-42
2022/02/14 03:20:44;;;;;;;;;;;;;;;;;;1003493;29;849;-42
2022/02/14 03:21:15;;;;;;;;;;;;;;;;;;1003831;29;928;-43
2022/02/14 03:21:45;;;;;;;;;;;;;;;;;;1003442;29;957;-42
2022/02/14 03:22:16;;;;;;;;;;;;;;;;;;1004445;29;1108;-42
2022/02/14 03:22:46;;;;;;;;;;;;;;;;;;1011691;29;960;-42
2022/02/14 03:23:16;;;;;;;;;;;;;;;;;;1011714;29;867;-42
2022/02/14 03:23:47;;;;;;;;;;;;;;;;;;1011735;29;1015;-42
2022/02/14 03:24:19;;;;;;;;;;;;;;;;;;1011525;29;1046;-42
2022/02/14 03:24:49;;;;;;;;;;;;;;;;;;1011500;29;907;-42
2022/02/14 03:25:20;;;;;;;;;;;;;;;;;;1011769;29;885;-42
2022/02/14 03:25:50;;;;;;;;;;;;;;;;;;1011582;29;896;-42
2022/02/14 03:26:21;;;;;;;;;;;;;;;;;;1011797;29;1254;-42
2022/02/14 03:26:51;;;;;;;;;;;;;;;;;;1011413;29;881;-42
2022/02/14 03:27:21;;;;;;;;;;;;;;;;;;1011846;29;840;-42
2022/02/14 03:27:53;;;;;;;;;;;;;;;;;;1011822;29;969;-42
2022/02/14 03:28:24;;;;;;;;;;;;;;;;;;1011525;29;804;-42
2022/02/14 03:28:55;;;;;;;;;;;;;;;;;;1011790;29;1238;-42
2022/02/14 03:29:25;;;;;;;;;;;;;;;;;;1011489;29;940;-42
2022/02/14 03:29:55;;;;;;;;;;;;;;;;;;1011787;29;939;-42
2022/02/14 03:30:26;;;;;;;;;;;;;;;;;;1011787;29;1048;-42
2022/02/14 03:30:58;;;;;;;;;;;;;;;;;;1011472;29;1006;-42
2022/02/14 03:31:28;;;;;;;;;;;;;;;;;;1011759;29;986;-42
2022/02/14 03:31:59;;;;;;;;;;;;;;;;;;1011418;29;892;-43
2022/02/14 03:32:29;;;;;;;;;;;;;;;;;;1011746;29;943;-42
2022/02/14 03:32:59;;;;;;;;;;;;;;;;;;1011766;29;974;-42
2022/02/14 03:33:30;;;;;;;;;;;;;;;;;;1011500;29;1033;-43
2022/02/14 03:34:00;;;;;;;;;;;;;;;;;;1011722;29;1907;-42
2022/02/14 03:34:31;;;;;;;;;;;;;;;;;;1011495;29;958;-42
2022/02/14 03:35:01;;;;;;;;;;;;;;;;;;1011563;29;856;-43
2022/02/14 03:35:32;;;;;;;;;;;;;;;;;;1011730;29;999;-43
2022/02/14 03:36:02;;;;;;;;;;;;;;;;;;1011464;29;932;-43
2022/02/14 03:36:32;;;;;;;;;;;;;;;;;;1011866;29;1212;-43
2022/02/14 03:37:03;;;;;;;;;;;;;;;;;;1011490;29;942;-42
2022/02/14 03:37:33;;;;;;;;;;;;;;;;;;1011746;29;840;-43